Wednesday, January 17, 2018, 2:48 PM GMT
Back to Local

CYHU, Saint Hubert Airport

Location: , , Canada Lat: 45.517
Local Time: 2:48 PM GMT (14:48 GMT) Lon: -73.417
Time Zone: GMT Elev: 88 ft

Show me the last for .
Show Coded

Time T Td Feel RH Dir Speed Gust Alt SLP Vis Weather Sky Remarks
2018-01-17 14:19 12 10 4 92 200° 5 - 30.37 30.38 2 -SN OVC004 None
2018-01-17 14:12 12 10 2 92 190° 7 - 30.37 30.38 3 -SN OVC004 None
2018-01-17 14:00 12 10 2 92 170° 7 - 30.36 30.37 3 BR OVC004 None
2018-01-17 13:25 12 10 - 92 170° 2 - 30.37 30.38 3 BR OVC004 None
2018-01-17 13:00 12 10 4 92 160° 5 - 30.37 30.38 3 -SN OVC004 None
2018-01-17 12:58 12 10 3 92 160° 6 - 30.37 30.38 3 -SN OVC004 None
2018-01-17 12:36 12 10 6 92 170° 3 - 30.36 30.37 5 BR OVC004 None
2018-01-17 12:23 12 10 - 92 180° 2 - 30.37 30.38 5 -SN OVC004 None
2018-01-17 12:02 12 9 4 85 90° 5 - 30.36 30.37 5 BR OVC004 None
2018-01-17 12:00 12 9 4 85 100° 5 - 30.36 30.37 6 BR OVC004 None
2018-01-17 11:37 12 9 4 85 130° 5 - 30.37 30.38 7 OVC004 None
2018-01-17 11:00 10 9 - 92 140° 2 - 30.37 30.38 7 OVC006 None
2018-01-17 10:00 10 7 1 84 100° 6 - 30.37 30.38 7 OVC006 None
2018-01-17 09:50 10 9 4 92 50° 3 - 30.37 30.38 7 -SN OVC006 None
2018-01-17 09:00 10 9 - 92 - Calm - 30.38 30.39 7 OVC008 None
2018-01-17 08:00 10 7 - 84 - Calm - 30.39 30.40 7 OVC010 None
2018-01-17 07:00 10 7 4 84 60° 3 - 30.39 30.40 7 OVC012 None
2018-01-17 06:00 10 9 - 92 Variable 2 - 30.39 30.40 8 BKN012 BKN020 None
2018-01-17 05:51 10 7 2 84 300° 5 - 30.39 30.40 8 SCT012 BKN020 None
2018-01-17 05:00 10 7 - 84 - Calm - 30.40 30.41 6 -SN OVC022 None
2018-01-17 04:52 10 7 - 84 - Calm - 30.40 30.41 6 -SN OVC022 None
2018-01-17 04:34 10 7 2 84 330° 5 - 30.40 30.41 5 -SN FEW012 OVC024 None
2018-01-17 04:00 9 5 - 84 360° 2 - 30.41 30.42 5 -SN BKN065 None
2018-01-17 03:48 10 7 4 84 30° 3 - 30.41 30.42 5 -SN BKN065 None
2018-01-17 03:36 10 7 4 84 40° 3 - 30.41 30.42 6 -SN OVC065 None
2018-01-17 03:04 10 9 4 92 10° 3 - 30.41 30.42 5 -SN FEW055 OVC067 None
2018-01-17 03:00 10 9 4 92 10° 3 - 30.41 30.42 6 -SN FEW055 OVC067 None
2018-01-17 02:00 10 7 2 84 30° 5 - 30.42 30.43 6 -SN OVC070 None
2018-01-17 01:37 10 9 - 92 50° 2 - 30.42 30.44 6 -SN OVC070 None
2018-01-17 01:00 12 9 6 85 10° 3 - 30.44 30.45 4 -SN OVC070 None
2018-01-17 00:48 12 9 4 85 20° 5 - 30.43 30.44 5 -SN FEW041 OVC070 None
2018-01-17 00:30 12 9 6 85 10° 3 - 30.44 30.45 6 -SN FEW043 OVC070 None
2018-01-17 00:00 12 9 6 85 50° 3 - 30.44 30.45 5 -SN BKN048 OVC070 None
2018-01-16 23:10 12 9 4 85 20° 5 - 30.44 30.46 3 -SN BKN028 OVC041 None
2018-01-16 23:04 12 9 3 85 20° 6 - 30.44 30.45 2 -SN OVC030 None
2018-01-16 23:00 12 9 4 85 20° 5 - 30.44 30.45 1 -SN OVC030 None
2018-01-16 22:55 12 9 4 85 40° 5 - 30.44 30.45 2 -SN BKN030 OVC065 None
2018-01-16 22:51 12 9 6 85 30° 3 - 30.44 30.45 4 -SN BKN034 OVC065 None
2018-01-16 22:24 12 7 4 78 20° 5 - 30.43 30.44 6 -SN FEW038 OVC070 None
2018-01-16 22:00 12 9 - 85 10° 2 - 30.43 30.44 4 -SN OVC038 None
2018-01-16 21:58 12 9 - 85 10° 2 - 30.43 30.45 5 -SN BKN038 OVC065 None
2018-01-16 21:56 12 9 - 85 360° 2 - 30.43 30.45 6 -SN BKN038 OVC065 None
2018-01-16 21:40 12 9 - 85 350° 2 - 30.43 30.45 5 -SN FEW028 SCT040 BKN050 OVC065 None
2018-01-16 21:19 12 7 - 78 Variable 2 - 30.44 30.45 6 -SN BKN027 BKN055 OVC065 None
2018-01-16 21:00 12 7 - 78 - Calm - 30.44 30.45 3 -SN BKN025 OVC065 None
2018-01-16 20:51 12 7 - 78 - Calm - 30.43 30.45 3 -SN SCT027 OVC065 None
2018-01-16 20:23 12 7 6 78 60° 3 - 30.43 30.44 2 -SN BKN034 OVC044 None
2018-01-16 20:00 12 7 6 78 30° 3 - 30.43 30.44 4 -SN BKN030 OVC040 None
2018-01-16 19:34 9 3 - 78 Variable 2 - 30.43 30.44 5 -SN SCT030 BKN036 None
2018-01-16 19:29 10 5 - 78 40° 2 - 30.42 30.43 6 -SN FEW030 BKN036 None
2018-01-16 19:01 10 7 1 84 20° 6 - 30.42 30.43 5 -SN BKN033 OVC049 None
2018-01-16 19:00 10 5 1 78 20° 6 - 30.42 30.43 6 -SN BKN033 OVC049 None
2018-01-16 18:44 12 5 3 72 50° 6 - 30.43 30.44 6 -SN FEW024 SCT035 BKN049 None
2018-01-16 18:04 10 7 2 84 50° 5 - 30.43 30.44 5 -SN OVC047 None
2018-01-16 18:00 10 5 4 78 40° 3 - 30.43 30.44 8 -SN OVC047 None
2018-01-16 17:53 10 5 1 78 60° 6 - 30.42 30.44 6 -SN OVC047 None
2018-01-16 17:39 12 7 3 78 60° 6 - 30.42 30.44 5 -SN OVC045 None
2018-01-16 17:25 10 5 2 78 60° 5 - 30.43 30.44 6 -SN FEW027 SCT032 OVC045 None
2018-01-16 17:00 10 5 - 78 - Calm - 30.44 30.46 3 -SN OVC029 None
2018-01-16 16:46 9 5 - 84 - Calm - 30.45 30.47 5 -SN OVC027 None
2018-01-16 16:36 9 5 2 84 330° 3 - 30.45 30.47 6 -SN OVC025 None
2018-01-16 16:28 9 3 2 78 340° 3 - 30.46 30.47 3 -SN OVC025 None
2018-01-16 16:11 9 5 2 84 10° 3 - 30.46 30.47 2 -SN OVC025 None
2018-01-16 16:00 9 3 2 78 30° 3 - 30.47 30.48 3 -SN OVC025 None
2018-01-16 15:12 7 3 -6 84 10° 8 - 30.47 30.48 5 -SN OVC025 None
2018-01-16 15:00 7 3 -6 84 10° 8 - 30.47 30.48 6 -SN OVC025 None

Support USWX by starting your Amazon purchase here.